createdAt,value
2018-04-22T00:00:15.174Z,15.90
2018-04-22T00:02:43.471Z,13.10
2018-04-22T00:05:11.062Z,12.60
2018-04-22T00:07:38.611Z,11.97
2018-04-22T00:10:06.246Z,12.53
2018-04-22T00:12:33.765Z,11.57
2018-04-22T00:15:01.490Z,11.10
2018-04-22T00:17:29.055Z,10.73
2018-04-22T00:19:56.614Z,10.97
2018-04-22T00:22:24.157Z,11.03
2018-04-22T00:24:51.738Z,10.70
2018-04-22T00:27:19.420Z,7.70
2018-04-22T00:29:46.992Z,8.10
2018-04-22T00:32:16.029Z,8.73
2018-04-22T00:34:43.547Z,8.57
2018-04-22T00:37:11.142Z,8.97
2018-04-22T00:39:38.672Z,9.67
2018-04-22T00:42:06.982Z,10.90
2018-04-22T00:44:34.591Z,13.23
2018-04-22T00:47:02.159Z,10.87
2018-04-22T00:49:29.768Z,10.90
2018-04-22T00:51:57.329Z,9.30
2018-04-22T00:54:24.927Z,9.97
2018-04-22T00:56:52.590Z,9.07
2018-04-22T00:59:20.160Z,9.20
2018-04-22T01:01:47.689Z,8.77
2018-04-22T01:04:15.221Z,8.57
2018-04-22T01:06:42.737Z,7.70
2018-04-22T01:09:10.307Z,7.73
2018-04-22T01:11:37.946Z,7.20
2018-04-22T01:14:05.466Z,5.80
2018-04-22T01:16:33.028Z,7.17
2018-04-22T01:19:00.695Z,6.70
2018-04-22T01:21:28.241Z,6.70
2018-04-22T01:23:55.771Z,6.83
2018-04-22T01:26:23.349Z,6.43
2018-04-22T01:28:50.889Z,7.20
2018-04-22T01:31:18.416Z,6.83
2018-04-22T01:33:46.053Z,6.73
2018-04-22T01:36:13.710Z,6.73
2018-04-22T01:38:41.320Z,6.43
2018-04-22T01:41:08.929Z,6.47
2018-04-22T01:43:36.524Z,6.70
2018-04-22T01:46:04.057Z,6.10
2018-04-22T01:48:31.622Z,7.13
2018-04-22T01:50:59.226Z,6.20
2018-04-22T01:53:28.278Z,5.97
2018-04-22T01:55:55.821Z,6.80
2018-04-22T01:58:23.425Z,7.67
2018-04-22T02:00:50.937Z,7.60
2018-04-22T02:03:18.462Z,7.60
2018-04-22T02:05:46.086Z,6.87
2018-04-22T02:08:13.613Z,7.10
2018-04-22T02:10:41.221Z,7.00
2018-04-22T02:13:08.815Z,7.40
2018-04-22T02:15:36.378Z,6.53
2018-04-22T02:18:03.910Z,7.80
2018-04-22T02:20:32.234Z,7.00
2018-04-22T02:22:59.836Z,7.70
2018-04-22T02:25:27.356Z,6.37
2018-04-22T02:27:54.936Z,6.73
2018-04-22T02:30:22.481Z,7.80
2018-04-22T02:32:50.032Z,7.40
2018-04-22T02:35:17.589Z,7.57
2018-04-22T02:37:45.152Z,7.33
2018-04-22T02:40:12.697Z,6.50
2018-04-22T02:42:40.266Z,6.37
2018-04-22T02:45:07.831Z,6.77
2018-04-22T02:47:35.419Z,6.47
2018-04-22T02:50:02.935Z,6.13
2018-04-22T02:52:30.450Z,6.40
2018-04-22T02:54:58.102Z,6.60
2018-04-22T02:57:25.731Z,6.10
2018-04-22T02:59:53.280Z,6.17
2018-04-22T03:02:20.809Z,5.80
2018-04-22T03:04:49.247Z,6.40
2018-04-22T03:07:16.782Z,6.47
2018-04-22T03:09:44.355Z,7.50
2018-04-22T03:12:12.009Z,6.83
2018-04-22T03:14:39.559Z,8.10
2018-04-22T03:17:07.151Z,6.40
2018-04-22T03:19:34.806Z,6.10
2018-04-22T03:22:02.328Z,7.10
2018-04-22T03:24:29.898Z,6.83
2018-04-22T03:26:57.492Z,6.33
2018-04-22T03:29:25.035Z,5.63
2018-04-22T03:31:52.572Z,6.53
2018-04-22T03:34:20.166Z,6.63
2018-04-22T03:36:47.701Z,6.10
2018-04-22T03:39:15.227Z,5.40
2018-04-22T03:41:43.506Z,5.83
2018-04-22T03:44:11.111Z,5.90
2018-04-22T03:46:38.667Z,5.57
2018-04-22T03:49:06.192Z,6.07
2018-04-22T03:51:33.772Z,7.67
2018-04-22T03:54:01.347Z,6.10
2018-04-22T03:56:28.902Z,5.90
2018-04-22T03:58:56.428Z,6.10
2018-04-22T04:01:24.000Z,5.70
2018-04-22T04:03:51.534Z,6.60
2018-04-22T04:06:19.843Z,6.23
2018-04-22T04:08:47.378Z,6.93
2018-04-22T04:11:15.663Z,5.07
2018-04-22T04:13:43.242Z,6.73
2018-04-22T04:16:10.781Z,5.27
2018-04-22T04:18:59.149Z,5.03
2018-04-22T04:21:38.533Z,5.30
2018-04-22T04:27:32.255Z,5.30
2018-04-22T04:29:59.817Z,5.40
2018-04-22T04:32:27.364Z,5.90
2018-04-22T04:34:54.938Z,5.50
2018-04-22T04:37:22.534Z,5.40
2018-04-22T04:39:50.065Z,6.00
2018-04-22T04:42:17.639Z,6.10
2018-04-22T04:44:45.240Z,6.77
2018-04-22T04:47:12.789Z,6.47
2018-04-22T04:49:40.331Z,6.73
2018-04-22T04:52:07.845Z,5.63
2018-04-22T04:54:35.374Z,6.43
2018-04-22T04:57:02.987Z,6.30
2018-04-22T04:59:30.518Z,5.53
2018-04-22T05:01:58.126Z,5.47
2018-04-22T05:04:25.703Z,6.17
2018-04-22T05:06:53.252Z,5.70
2018-04-22T05:09:20.799Z,5.70
2018-04-22T05:11:48.495Z,5.30
2018-04-22T05:14:16.227Z,5.57
2018-04-22T05:16:43.779Z,5.17
2018-04-22T05:19:11.342Z,5.90
2018-04-22T05:21:38.919Z,5.27
2018-04-22T05:24:06.458Z,5.33
2018-04-22T05:26:34.006Z,4.93
2018-04-22T05:29:01.663Z,5.23
2018-04-22T05:31:29.322Z,4.97
2018-04-22T05:33:56.843Z,5.87
2018-04-22T05:36:25.195Z,5.60
2018-04-22T05:38:52.718Z,5.00
2018-04-22T05:41:20.245Z,5.07
2018-04-22T05:43:48.575Z,4.90
2018-04-22T05:46:16.118Z,5.60
2018-04-22T05:48:43.732Z,5.57
2018-04-22T05:51:11.325Z,5.30
2018-04-22T05:53:38.875Z,5.90
2018-04-22T05:56:06.487Z,5.83
2018-04-22T05:58:34.014Z,4.90
2018-04-22T06:01:01.546Z,5.07
2018-04-22T06:03:29.883Z,6.17
2018-04-22T06:05:57.540Z,5.60
2018-04-22T06:08:25.083Z,5.97
2018-04-22T06:10:52.662Z,6.33
2018-04-22T06:13:20.223Z,6.20
2018-04-22T06:15:47.804Z,6.30
2018-04-22T06:18:16.090Z,6.43
2018-04-22T06:20:44.385Z,5.80
2018-04-22T06:23:11.973Z,6.23
2018-04-22T06:25:39.594Z,6.17
2018-04-22T06:28:07.220Z,7.20
2018-04-22T06:30:35.120Z,5.47
2018-04-22T06:33:02.750Z,5.50
2018-04-22T06:35:30.295Z,6.03
2018-04-22T06:37:57.819Z,6.90
2018-04-22T06:40:25.407Z,6.63
2018-04-22T06:42:52.995Z,6.30
2018-04-22T06:45:20.547Z,5.80
2018-04-22T06:47:49.578Z,6.33
2018-04-22T06:50:17.186Z,6.47
2018-04-22T06:52:44.841Z,7.57
2018-04-22T06:55:12.366Z,7.70
2018-04-22T06:57:39.974Z,7.47
2018-04-22T07:00:07.642Z,7.23
2018-04-22T07:05:09.911Z,7.27
2018-04-22T07:07:37.496Z,7.20
2018-04-22T07:10:05.078Z,7.83
2018-04-22T07:12:33.448Z,7.50
2018-04-22T07:15:01.770Z,8.27
2018-04-22T07:17:29.378Z,8.10
2018-04-22T07:19:57.798Z,7.80
2018-04-22T07:22:25.341Z,8.60
2018-04-22T07:24:53.904Z,8.50
2018-04-22T07:27:22.356Z,7.50
2018-04-22T07:29:50.650Z,8.47
2018-04-22T07:32:18.298Z,8.90
2018-04-22T07:34:45.866Z,8.03
2018-04-22T07:37:13.388Z,8.00
2018-04-22T07:39:40.939Z,7.30
2018-04-22T07:42:08.481Z,8.00
2018-04-22T07:44:36.032Z,8.07
2018-04-22T07:47:03.926Z,8.37
2018-04-22T07:49:31.512Z,7.80
2018-04-22T07:51:59.049Z,8.80
2018-04-22T07:54:26.649Z,8.57
2018-04-22T07:56:54.257Z,7.63
2018-04-22T07:59:21.807Z,8.90
2018-04-22T08:01:49.485Z,8.77
2018-04-22T08:04:17.058Z,8.10
2018-04-22T08:06:44.688Z,8.63
2018-04-22T08:09:13.003Z,8.20
2018-04-22T08:11:40.575Z,8.23
2018-04-22T08:14:08.131Z,9.20
2018-04-22T08:16:35.686Z,8.50
2018-04-22T08:19:03.219Z,17.50
2018-04-22T08:21:30.930Z,10.70
2018-04-22T08:23:59.234Z,30.30
2018-04-22T08:26:27.902Z,13.90
2018-04-22T08:28:56.372Z,11.53
2018-04-22T08:31:23.927Z,31.53
2018-04-22T08:33:51.563Z,9.50
2018-04-22T08:36:19.130Z,8.63
2018-04-22T08:38:46.687Z,8.63
2018-04-22T08:41:14.227Z,8.70
2018-04-22T08:43:41.782Z,9.40
2018-04-22T08:46:09.386Z,8.90
2018-04-22T08:48:37.752Z,7.93
2018-04-22T08:51:05.306Z,8.57
2018-04-22T08:53:32.842Z,8.50
2018-04-22T08:56:00.385Z,8.63
2018-04-22T08:58:27.941Z,8.27
2018-04-22T09:00:55.575Z,9.13
2018-04-22T09:03:23.876Z,8.37
2018-04-22T09:05:51.486Z,9.83
2018-04-22T09:08:19.014Z,8.93
2018-04-22T09:10:46.634Z,8.67
2018-04-22T09:13:14.272Z,9.07
2018-04-22T09:15:41.903Z,7.70
2018-04-22T09:18:09.462Z,7.10
2018-04-22T09:20:37.018Z,5.33
2018-04-22T09:23:04.588Z,5.07
2018-04-22T09:25:32.176Z,4.80
2018-04-22T09:28:01.354Z,5.03
2018-04-22T09:30:28.840Z,4.73
2018-04-22T09:32:56.358Z,5.30
2018-04-22T09:35:24.839Z,5.33
2018-04-22T09:37:52.503Z,5.20
2018-04-22T09:40:20.112Z,5.20
2018-04-22T09:42:48.417Z,4.80
2018-04-22T09:45:15.960Z,5.10
2018-04-22T09:47:43.525Z,5.47
2018-04-22T09:50:11.126Z,4.97
2018-04-22T09:52:38.671Z,4.87
2018-04-22T09:55:06.205Z,5.57
2018-04-22T09:57:33.807Z,5.07
2018-04-22T10:00:01.459Z,5.90
2018-04-22T10:02:33.564Z,5.37
2018-04-22T10:05:07.853Z,5.93
2018-04-22T10:07:35.450Z,5.70
2018-04-22T10:10:03.771Z,6.47
2018-04-22T10:12:31.314Z,5.33
2018-04-22T10:14:58.913Z,8.40
2018-04-22T10:17:26.549Z,5.63
2018-04-22T10:19:54.059Z,6.20
2018-04-22T10:22:21.754Z,5.53
2018-04-22T10:24:49.311Z,5.00
2018-04-22T10:27:16.921Z,4.57
2018-04-22T10:29:44.491Z,5.70
2018-04-22T10:32:12.063Z,6.00
2018-04-22T10:34:40.448Z,5.60
2018-04-22T10:37:07.963Z,5.00
2018-04-22T10:39:35.486Z,4.80
2018-04-22T10:42:03.062Z,5.50
2018-04-22T10:44:30.607Z,5.30
2018-04-22T10:46:58.139Z,6.07
2018-04-22T10:49:26.487Z,4.90
2018-04-22T10:51:54.005Z,6.03
2018-04-22T10:54:21.623Z,5.40
2018-04-22T10:56:50.087Z,6.03
2018-04-22T10:59:17.610Z,5.97
2018-04-22T11:01:45.163Z,6.57
2018-04-22T11:04:12.704Z,4.87
2018-04-22T11:06:41.016Z,5.70
2018-04-22T11:09:08.542Z,5.93
2018-04-22T11:11:36.869Z,7.30
2018-04-22T11:14:04.435Z,7.17
2018-04-22T11:16:32.024Z,8.47
2018-04-22T11:19:00.403Z,9.90
2018-04-22T11:21:28.743Z,9.60
2018-04-22T11:23:56.350Z,10.90
2018-04-22T11:26:24.379Z,10.50
2018-04-22T11:28:52.011Z,10.80
2018-04-22T11:31:19.537Z,11.77
2018-04-22T11:33:47.879Z,12.40
2018-04-22T11:36:16.337Z,11.33
2018-04-22T11:38:43.882Z,11.40
2018-04-22T11:41:11.398Z,11.87
2018-04-22T11:43:39.746Z,12.43
2018-04-22T11:46:07.318Z,14.60
2018-04-22T11:48:34.878Z,14.50
2018-04-22T11:51:02.567Z,14.63
2018-04-22T11:53:30.864Z,15.33
2018-04-22T11:55:58.442Z,13.67
2018-04-22T11:58:26.017Z,13.53
2018-04-22T12:00:53.596Z,14.27
2018-04-22T12:03:21.161Z,12.97
2018-04-22T12:05:48.716Z,12.70
2018-04-22T12:08:16.281Z,12.40
2018-04-22T12:10:43.806Z,14.70
2018-04-22T12:13:11.361Z,13.50
2018-04-22T12:15:39.014Z,12.80
2018-04-22T12:18:06.563Z,15.27
2018-04-22T12:20:34.171Z,14.03
2018-04-22T12:23:01.728Z,13.03
2018-04-22T12:25:31.939Z,13.20
2018-04-22T12:27:59.597Z,14.10
2018-04-22T12:30:27.136Z,13.97
2018-04-22T12:32:54.694Z,14.47
2018-04-22T12:35:22.596Z,13.80
2018-04-22T12:37:50.918Z,15.83
2018-04-22T12:40:18.488Z,14.57
2018-04-22T12:42:46.043Z,16.60
2018-04-22T12:45:13.754Z,15.80
2018-04-22T12:47:41.377Z,14.93
2018-04-22T12:50:08.913Z,16.90
2018-04-22T12:52:37.325Z,17.07
2018-04-22T12:55:04.916Z,13.90
2018-04-22T12:57:32.479Z,13.70
2018-04-22T13:00:00.063Z,13.47
2018-04-22T13:02:28.377Z,13.27
2018-04-22T13:04:55.945Z,13.90
2018-04-22T13:07:23.540Z,12.27
2018-04-22T13:09:51.912Z,10.90
2018-04-22T13:12:19.437Z,13.87
2018-04-22T13:14:46.996Z,12.10
2018-04-22T13:17:14.701Z,12.77
2018-04-22T13:19:42.246Z,13.60
2018-04-22T13:22:09.773Z,12.27
2018-04-22T13:24:37.350Z,12.23
2018-04-22T13:27:04.899Z,12.27
2018-04-22T13:29:32.549Z,11.73
2018-04-22T13:32:00.283Z,12.80
2018-04-22T13:34:27.852Z,12.03
2018-04-22T13:36:55.387Z,13.63
2018-04-22T13:39:22.956Z,13.87
2018-04-22T13:41:51.381Z,13.73
2018-04-22T13:44:18.959Z,13.90
2018-04-22T13:46:46.849Z,13.17
2018-04-22T13:49:14.595Z,12.50
2018-04-22T13:51:42.139Z,13.27
2018-04-22T13:54:09.709Z,14.20
2018-04-22T13:56:37.339Z,12.13
2018-04-22T13:59:04.902Z,13.40
2018-04-22T14:01:32.457Z,13.80
2018-04-22T14:03:59.994Z,11.30
2018-04-22T14:06:27.522Z,12.73
2018-04-22T14:08:55.091Z,12.10
2018-04-22T14:11:23.539Z,11.60
2018-04-22T14:13:51.074Z,13.20
2018-04-22T14:16:18.628Z,13.13
2018-04-22T14:18:46.291Z,13.53
2018-04-22T14:21:13.846Z,13.43
2018-04-22T14:23:41.408Z,13.93
2018-04-22T14:26:09.000Z,15.20
2018-04-22T14:28:36.530Z,15.80
2018-04-22T14:31:04.091Z,15.17
2018-04-22T14:33:31.671Z,15.70
2018-04-22T14:35:59.300Z,14.77
2018-04-22T14:38:26.839Z,14.33
2018-04-22T14:40:55.193Z,16.93
2018-04-22T14:43:22.839Z,15.17
2018-04-22T14:46:16.127Z,14.07
2018-04-22T14:48:56.417Z,16.20
2018-04-22T14:51:23.982Z,14.77
2018-04-22T14:53:51.583Z,15.53
2018-04-22T14:56:19.154Z,15.03
2018-04-22T14:58:46.694Z,14.73
2018-04-22T15:01:14.311Z,14.87
2018-04-22T15:03:41.918Z,15.00
2018-04-22T15:06:09.542Z,15.87
2018-04-22T15:08:37.078Z,14.50
2018-04-22T15:11:05.443Z,16.87
2018-04-22T15:13:33.780Z,15.47
2018-04-22T15:16:01.342Z,16.50
2018-04-22T15:18:29.009Z,15.37
2018-04-22T15:20:56.638Z,12.50
2018-04-22T15:23:24.207Z,14.70
2018-04-22T15:25:51.778Z,16.00
2018-04-22T15:28:19.380Z,15.00
2018-04-22T15:30:47.699Z,13.47
2018-04-22T15:33:15.241Z,13.40
2018-04-22T15:35:42.951Z,15.53
2018-04-22T15:38:10.588Z,12.83
2018-04-22T15:40:38.151Z,15.03
2018-04-22T15:43:05.669Z,15.37
2018-04-22T15:45:33.982Z,13.97
2018-04-22T15:48:01.566Z,13.00
2018-04-22T15:50:29.232Z,15.47
2018-04-22T15:52:56.776Z,14.37
2018-04-22T15:55:24.334Z,15.90
2018-04-22T15:57:51.914Z,12.83
2018-04-22T16:00:19.538Z,12.83
2018-04-22T16:02:47.097Z,12.30
2018-04-22T16:05:14.671Z,13.87
2018-04-22T16:07:42.233Z,15.43
2018-04-22T16:10:09.874Z,15.30
2018-04-22T16:12:37.434Z,12.70
2018-04-22T16:15:04.962Z,15.00
2018-04-22T16:17:33.305Z,15.63
2018-04-22T16:20:00.892Z,15.90
2018-04-22T16:22:29.215Z,16.17
2018-04-22T16:24:56.737Z,16.30
2018-04-22T16:27:25.250Z,15.40
2018-04-22T16:29:52.807Z,17.47
2018-04-22T16:32:20.488Z,16.90
2018-04-22T16:34:48.071Z,17.27
2018-04-22T16:37:15.594Z,19.77
2018-04-22T16:39:43.158Z,17.00
2018-04-22T16:42:10.806Z,15.93
2018-04-22T16:44:38.331Z,18.40
2018-04-22T16:47:06.666Z,19.67
2018-04-22T16:49:34.223Z,16.17
2018-04-22T16:52:01.744Z,19.53
2018-04-22T16:54:29.305Z,29.00
2018-04-22T16:56:56.869Z,23.20
2018-04-22T16:59:24.466Z,20.20
2018-04-22T17:01:52.024Z,19.03
2018-04-22T17:04:19.657Z,34.23
2018-04-22T17:06:47.324Z,25.87
2018-04-22T17:09:14.886Z,21.40
2018-04-22T17:11:42.442Z,19.63
2018-04-22T17:14:10.003Z,18.43
2018-04-22T17:16:37.561Z,16.77
2018-04-22T17:19:05.151Z,17.13
2018-04-22T17:21:32.714Z,18.97
2018-04-22T17:24:00.381Z,17.10
2018-04-22T17:26:27.932Z,16.33
2018-04-22T17:28:55.515Z,17.93
2018-04-22T17:31:23.849Z,17.13
2018-04-22T17:33:51.369Z,19.40
2018-04-22T17:36:19.678Z,26.47
2018-04-22T17:38:47.198Z,21.53
2018-04-22T17:41:15.509Z,20.03
2018-04-22T17:43:43.103Z,20.00
2018-04-22T17:46:12.159Z,19.20
2018-04-22T17:48:39.725Z,20.57
2018-04-22T17:51:07.274Z,21.57
2018-04-22T17:53:34.829Z,23.53
2018-04-22T17:56:02.393Z,23.47
2018-04-22T17:58:29.999Z,23.40
2018-04-22T18:00:58.330Z,24.37
2018-04-22T18:03:25.890Z,24.70
2018-04-22T18:05:53.558Z,25.53
2018-04-22T18:08:21.211Z,25.33
2018-04-22T18:10:50.709Z,25.30
2018-04-22T18:13:18.276Z,25.90
2018-04-22T18:15:45.830Z,23.83
2018-04-22T18:18:13.461Z,23.87
2018-04-22T18:20:41.024Z,25.70
2018-04-22T18:23:09.457Z,26.00
2018-04-22T18:25:37.022Z,25.60
2018-04-22T18:28:04.611Z,25.07
2018-04-22T18:30:32.234Z,27.90
2018-04-22T18:32:59.758Z,26.47
2018-04-22T18:35:28.093Z,27.13
2018-04-22T18:37:55.870Z,25.57
2018-04-22T18:40:23.374Z,26.77
2018-04-22T18:42:51.015Z,27.47
2018-04-22T18:45:19.341Z,26.93
2018-04-22T18:47:47.000Z,27.70
2018-04-22T18:50:14.800Z,28.30
2018-04-22T18:52:43.226Z,26.80
2018-04-22T18:55:10.745Z,27.20
2018-04-22T18:57:39.196Z,27.40
2018-04-22T19:00:06.735Z,25.30
2018-04-22T19:02:34.270Z,28.47
2018-04-22T19:05:01.890Z,29.80
2018-04-22T19:07:29.552Z,19.07
2018-04-22T19:09:57.211Z,10.40
2018-04-22T19:12:24.766Z,6.53
2018-04-22T19:14:52.302Z,4.07
2018-04-22T19:17:19.871Z,3.10
2018-04-22T19:19:47.433Z,2.63
2018-04-22T19:22:16.496Z,3.40
2018-04-22T19:24:44.011Z,4.90
2018-04-22T19:27:11.575Z,6.37
2018-04-22T19:29:39.871Z,6.07
2018-04-22T19:32:07.410Z,7.80
2018-04-22T19:34:35.733Z,6.57
2018-04-22T19:37:03.256Z,6.40
2018-04-22T19:39:31.599Z,6.20
2018-04-22T19:41:59.972Z,6.03
2018-04-22T19:44:27.540Z,5.10
2018-04-22T19:46:55.871Z,6.00
2018-04-22T19:49:23.462Z,4.33
2018-04-22T19:51:51.018Z,5.00
2018-04-22T19:54:18.592Z,5.20
2018-04-22T19:56:47.650Z,4.20
2018-04-22T19:59:15.222Z,4.40
2018-04-22T20:01:42.786Z,4.50
2018-04-22T20:04:10.336Z,4.93
2018-04-22T20:06:37.874Z,5.10
2018-04-22T20:09:06.212Z,5.23
2018-04-22T20:11:33.819Z,4.30
2018-04-22T20:14:01.384Z,4.40
2018-04-22T20:16:28.965Z,4.03
2018-04-22T20:18:56.505Z,3.80
2018-04-22T20:21:24.065Z,4.17
2018-04-22T20:23:51.676Z,4.73
2018-04-22T20:26:20.113Z,4.10
2018-04-22T20:28:47.673Z,3.80
2018-04-22T20:31:15.247Z,4.23
2018-04-22T20:33:42.840Z,3.90
2018-04-22T20:36:11.178Z,4.00
2018-04-22T20:38:38.689Z,3.53
2018-04-22T20:41:07.004Z,3.93
2018-04-22T20:43:34.554Z,4.47
2018-04-22T20:46:02.107Z,4.30
2018-04-22T20:48:29.626Z,4.03
2018-04-22T20:50:57.158Z,4.23
2018-04-22T20:53:24.714Z,4.40
2018-04-22T20:55:52.262Z,4.90
2018-04-22T20:58:19.829Z,4.33
2018-04-22T21:00:47.390Z,4.90
2018-04-22T21:03:14.967Z,5.70
2018-04-22T21:05:42.615Z,5.57
2018-04-22T21:08:10.195Z,5.40
2018-04-22T21:10:37.778Z,5.83
2018-04-22T21:13:06.109Z,4.47
2018-04-22T21:15:33.688Z,4.50
2018-04-22T21:18:02.054Z,4.73
2018-04-22T21:20:29.569Z,5.80
2018-04-22T21:22:57.116Z,6.00
2018-04-22T21:25:24.676Z,7.50
2018-04-22T21:27:52.987Z,6.40
2018-04-22T21:30:20.535Z,6.87
2018-04-22T21:32:48.116Z,6.90
2018-04-22T21:35:15.703Z,6.10
2018-04-22T21:37:43.337Z,5.60
2018-04-22T21:40:10.890Z,7.23
2018-04-22T21:42:38.451Z,6.37
2018-04-22T21:45:06.015Z,7.07
2018-04-22T21:47:33.569Z,6.43
2018-04-22T21:50:01.138Z,5.87
2018-04-22T21:52:28.710Z,6.10
2018-04-22T21:54:56.261Z,5.60
2018-04-22T21:57:23.839Z,5.67
2018-04-22T21:59:51.486Z,6.30
2018-04-22T22:02:19.009Z,5.47
2018-04-22T22:04:46.558Z,4.70
2018-04-22T22:07:14.109Z,5.50
2018-04-22T22:09:41.642Z,5.10
2018-04-22T22:12:09.282Z,4.60
2018-04-22T22:14:36.847Z,3.87
2018-04-22T22:17:04.489Z,3.70
2018-04-22T22:19:32.079Z,5.10
2018-04-22T22:21:59.655Z,4.60
2018-04-22T22:24:27.986Z,4.83
2018-04-22T22:26:55.555Z,5.27
2018-04-22T22:29:23.087Z,5.20
2018-04-22T22:31:50.659Z,4.43
2018-04-22T22:34:18.261Z,5.90
2018-04-22T22:36:45.794Z,4.90
2018-04-22T22:39:13.365Z,5.87
2018-04-22T22:41:40.935Z,5.17
2018-04-22T22:44:08.477Z,5.90
2018-04-22T22:46:36.067Z,6.07
2018-04-22T22:49:04.535Z,6.40
2018-04-22T22:51:32.862Z,6.57
2018-04-22T22:54:00.411Z,7.90
2018-04-22T22:56:27.964Z,6.53
2018-04-22T22:58:55.638Z,6.40
2018-04-22T23:01:23.164Z,7.13
2018-04-22T23:03:51.478Z,8.27
2018-04-22T23:06:19.055Z,6.67
2018-04-22T23:08:46.684Z,7.63
2018-04-22T23:11:14.254Z,7.63
2018-04-22T23:13:41.813Z,7.60
2018-04-22T23:16:09.395Z,7.53
2018-04-22T23:18:36.955Z,7.70
2018-04-22T23:21:04.626Z,6.80
2018-04-22T23:23:32.202Z,7.40
2018-04-22T23:25:59.726Z,7.63
2018-04-22T23:28:27.304Z,8.17
2018-04-22T23:30:54.976Z,8.67
2018-04-22T23:33:22.558Z,8.03
2018-04-22T23:35:50.844Z,7.70
2018-04-22T23:38:18.378Z,7.70
2018-04-22T23:40:45.926Z,7.90
2018-04-22T23:43:14.994Z,8.20
2018-04-22T23:45:42.552Z,8.40
2018-04-22T23:48:10.165Z,9.03
2018-04-22T23:50:38.499Z,8.13
2018-04-22T23:53:06.105Z,8.67
2018-04-22T23:55:34.421Z,9.20
2018-04-22T23:58:01.982Z,7.90
